Time;durP1;ratioP1;P1;durP2;ratioP2;P2;SDS_P1;SDS_P2;PMS_P1;PMS_P2;Temp;Humidity;BMP_temperature;BMP_pressure;BME280_temperature;BME280_humidity;BME280_pressure;Samples;Min_cycle;Max_cycle;Signal;HPM_P1;HPM_P2
2021/01/12 10:49:58;;;;;;;;;;;2.00;99.90;;;;;;5784833;22;19919;31
2021/01/12 10:52:31;;;;;;;;;;;2.00;99.90;;;;;;5014802;28;19929;-79
2021/01/12 12:42:58;;;;;;;;;;;2.40;99.90;;;;;;5066010;28;19924;-81
2021/01/12 12:45:23;;;;;;;;;;;2.40;99.90;;;;;;5055345;28;19963;-79
2021/01/12 12:47:49;;;;;;;;;;;2.40;99.90;;;;;;5054708;28;19908;-82
2021/01/12 12:50:14;;;;;;;;;;;2.40;99.90;;;;;;5055100;28;19962;-81
2021/01/12 12:52:40;;;;;;;;;;;2.40;99.90;;;;;;5055080;28;20414;-81
2021/01/12 12:55:06;;;;;;;;;;;2.40;99.90;;;;;;5162380;23;19954;-80
2021/01/12 12:57:32;;;;;;;;;;;2.40;99.90;;;;;;5140271;22;19936;-79
2021/01/12 12:59:57;;;;;;;;;;;2.30;99.90;;;;;;5014987;28;19916;-81
2021/01/12 13:02:25;;;;;;;;;;;2.30;99.90;;;;;;5028175;28;19916;-80
2021/01/12 13:04:54;;;;;;;;;;;2.30;99.90;;;;;;5032319;28;19920;-82
2021/01/12 13:07:19;;;;;;;;;;;2.30;99.90;;;;;;5147059;22;19929;-80
2021/01/12 13:09:46;;;;;;;;;;;2.30;99.90;;;;;;5054169;28;20018;-80
2021/01/12 13:12:12;;;;;;;;;;;2.30;99.90;;;;;;5053413;28;19909;-80
2021/01/12 13:14:40;;;;;;;;;;;2.30;99.90;;;;;;5061905;28;19920;-80
2021/01/12 13:17:08;;;;;;;;;;;2.30;99.90;;;;;;5152493;23;20017;-81
2021/01/12 13:19:36;;;;;;;;;;;2.30;99.90;;;;;;5156753;23;19924;-87
2021/01/12 13:22:02;;;;;;;;;;;2.30;99.90;;;;;;5051469;28;20063;-87
2021/01/12 13:24:28;;;;;;;;;;;2.40;99.90;;;;;;5068429;28;20023;-88
2021/01/12 13:27:00;;;;;;;;;;;2.30;99.90;;;;;;5070739;28;19919;-89
2021/01/12 13:29:26;;;;;;;;;;;2.40;99.90;;;;;;5166749;22;19928;-80
2021/01/12 13:31:51;;;;;;;;;;;2.40;99.90;;;;;;5047051;28;20461;-80
2021/01/12 13:34:17;;;;;;;;;;;2.40;99.90;;;;;;5050093;28;19921;-81
2021/01/12 13:36:45;;;;;;;;;;;2.50;99.90;;;;;;5050403;28;19917;-80
2021/01/12 13:39:14;;;;;;;;;;;2.40;99.90;;;;;;5044972;28;19912;-82
2021/01/12 13:41:40;;;;;;;;;;;2.40;99.90;;;;;;5055375;28;19939;-82
2021/01/12 13:44:05;;;;;;;;;;;2.40;99.90;;;;;;5052971;28;19912;-82
2021/01/12 13:46:31;;;;;;;;;;;2.50;99.90;;;;;;5053792;28;20275;-82
2021/01/12 13:48:57;;;;;;;;;;;2.50;99.90;;;;;;5060813;28;19912;-82
2021/01/12 13:51:23;;;;;;;;;;;2.50;99.90;;;;;;5057199;28;19917;-82
2021/01/12 13:53:52;;;;;;;;;;;2.50;99.90;;;;;;5053049;28;20306;-81
2021/01/12 13:56:23;;;;;;;;;;;2.50;99.90;;;;;;5164734;22;19925;-80
2021/01/12 13:58:53;;;;;;;;;;;2.50;99.90;;;;;;5048455;28;19920;-81
2021/01/12 14:01:20;;;;;;;;;;;2.50;99.90;;;;;;5046790;28;20325;-81
2021/01/12 14:03:49;;;;;;;;;;;2.40;99.90;;;;;;5044811;28;19922;-81
2021/01/12 14:53:09;;;;;;;;;;;2.30;99.90;;;;;;5072425;22;20018;-81
2021/01/12 14:55:34;;;;;;;;;;;2.30;99.90;;;;;;5043415;28;19928;-81
2021/01/12 14:58:00;;;;;;;;;;;2.40;99.90;;;;;;5051143;28;19913;-81
2021/01/12 15:00:27;;;;;;;;;;;2.30;99.90;;;;;;5286561;22;20294;-81
2021/01/12 15:02:52;;;;;;;;;;;2.30;99.90;;;;;;5135272;22;19983;-80
2021/01/12 15:05:18;;;;;;;;;;;2.30;99.90;;;;;;5016539;28;19921;-81
2021/01/12 15:07:46;;;;;;;;;;;2.40;99.90;;;;;;5015672;28;20043;-82
2021/01/12 15:10:12;;;;;;;;;;;2.30;99.90;;;;;;5016191;28;19945;-81
2021/01/12 15:15:14;;;;;;;;;;;2.30;99.90;;;;;;5081617;22;19937;-80
2021/01/12 15:17:40;;;;;;;;;;;2.30;99.90;;;;;;5037047;28;20359;-81
2021/01/12 15:20:06;;;;;;;;;;;2.40;99.90;;;;;;5032164;28;20278;-80
2021/01/12 15:22:31;;;;;;;;;;;2.30;99.90;;;;;;5035329;28;19916;-80
2021/01/12 15:24:57;;;;;;;;;;;2.30;99.90;;;;;;5033181;28;19916;-80
2021/01/12 15:27:23;;;;;;;;;;;2.40;99.90;;;;;;5034805;28;19979;-81
2021/01/12 15:29:50;;;;;;;;;;;2.40;99.90;;;;;;5091894;22;1449686;-81
2021/01/12 15:32:16;;;;;;;;;;;2.40;99.90;;;;;;5029995;28;19917;-81
2021/01/12 15:34:42;;;;;;;;;;;2.40;99.90;;;;;;5026517;28;19921;-81
2021/01/12 15:37:10;;;;;;;;;;;2.40;99.90;;;;;;5030723;28;19921;-80
2021/01/12 15:39:35;;;;;;;;;;;2.50;99.90;;;;;;5040046;28;19914;-81
2021/01/12 15:42:01;;;;;;;;;;;2.50;99.90;;;;;;5031198;28;20379;-82
2021/01/12 15:44:27;;;;;;;;;;;2.40;99.90;;;;;;5023804;28;19913;-80
2021/01/12 15:46:53;;;;;;;;;;;2.50;99.90;;;;;;5133246;22;19898;-82
2021/01/12 15:49:19;;;;;;;;;;;2.50;99.90;;;;;;5014539;28;20399;-82
2021/01/12 15:51:44;;;;;;;;;;;2.50;99.90;;;;;;5010779;28;19953;-81
2021/01/12 15:54:13;;;;;;;;;;;2.50;99.90;;;;;;5030376;28;19929;-81
2021/01/12 15:56:38;;;;;;;;;;;2.50;99.90;;;;;;5279492;22;20193;-83
2021/01/12 15:59:06;;;;;;;;;;;2.50;99.90;;;;;;5051497;28;19929;-80
2021/01/12 16:01:34;;;;;;;;;;;2.50;99.90;;;;;;5051573;28;19962;-83
2021/01/12 16:04:00;;;;;;;;;;;2.50;99.90;;;;;;5051377;28;20007;-82
2021/01/12 16:06:28;;;;;;;;;;;2.50;99.90;;;;;;5051134;28;19984;-83
2021/01/12 16:08:53;;;;;;;;;;;2.50;99.90;;;;;;5058873;28;19912;-82
2021/01/12 16:11:24;;;;;;;;;;;2.50;99.90;;;;;;5058157;28;20401;-83
2021/01/12 16:13:55;;;;;;;;;;;2.50;99.90;;;;;;5051423;28;19917;-84
2021/01/12 16:16:20;;;;;;;;;;;2.50;99.90;;;;;;5124155;22;20443;-83
2021/01/12 16:18:46;;;;;;;;;;;2.50;99.90;;;;;;5004689;28;20016;-82
2021/01/12 16:21:12;;;;;;;;;;;2.50;99.90;;;;;;5131350;23;19947;-83
2021/01/12 16:23:37;;;;;;;;;;;2.50;99.90;;;;;;5049742;28;19944;-81
2021/01/12 16:26:04;;;;;;;;;;;2.50;99.90;;;;;;5265526;22;20310;-82
2021/01/12 16:28:30;;;;;;;;;;;2.50;99.90;;;;;;5052274;28;20287;-81
2021/01/12 16:30:55;;;;;;;;;;;2.50;99.90;;;;;;5037301;28;20015;-82
2021/01/12 16:33:24;;;;;;;;;;;2.50;99.90;;;;;;5026746;28;19999;-82
2021/01/12 16:35:51;;;;;;;;;;;2.50;99.90;;;;;;5035873;28;19917;-82
2021/01/12 16:38:18;;;;;;;;;;;2.60;99.90;;;;;;5029711;28;19940;-84
2021/01/12 16:40:44;;;;;;;;;;;2.60;99.90;;;;;;5262074;22;19932;-86
2021/01/12 16:46:03;;;;;;;;;;;2.60;99.90;;;;;;5364785;22;19929;-82
2021/01/12 16:53:41;;;;;;;;;;;2.60;99.90;;;;;;5640768;22;19955;-81
2021/01/12 16:56:17;;;;;;;;;;;2.60;99.90;;;;;;5506252;23;19929;-87
2021/01/12 16:59:02;;;;;;;;;;;2.60;99.90;;;;;;5847374;22;19932;-87
2021/01/12 17:01:28;;;;;;;;;;;2.70;99.90;;;;;;5423780;22;19924;31
2021/01/12 17:22:50;;;;;;;;;;;2.90;99.90;;;;;;5152529;22;19936;-89
2021/01/12 17:25:18;;;;;;;;;;;2.90;99.90;;;;;;5005683;28;19925;-88
2021/01/12 17:27:47;;;;;;;;;;;2.90;99.90;;;;;;5011445;28;19920;-88
2021/01/12 17:30:14;;;;;;;;;;;2.90;99.90;;;;;;5012781;28;19959;-89
2021/01/12 17:32:43;;;;;;;;;;;3.00;99.90;;;;;;5011121;28;19921;-89
2021/01/12 17:35:13;;;;;;;;;;;3.00;99.90;;;;;;5012782;28;19914;-90
2021/01/12 17:40:14;;;;;;;;;;;3.00;99.90;;;;;;5549728;22;20380;-83
2021/01/12 17:42:40;;;;;;;;;;;3.10;99.90;;;;;;5203747;23;19928;-89
2021/01/12 17:50:24;;;;;;;;;;;3.10;99.90;;;;;;5291506;22;20027;-87
2021/01/12 17:52:53;;;;;;;;;;;3.00;99.90;;;;;;5288074;22;19931;-93
2021/01/12 17:55:22;;;;;;;;;;;3.10;99.90;;;;;;5150338;22;19936;-89
2021/01/12 17:57:48;;;;;;;;;;;3.10;99.90;;;;;;5014212;28;19921;-89
2021/01/12 18:00:16;;;;;;;;;;;3.10;99.90;;;;;;5128293;22;19929;-89
2021/01/12 18:05:10;;;;;;;;;;;3.10;99.90;;;;;;5049606;28;20438;-81
2021/01/12 18:12:57;;;;;;;;;;;3.10;99.90;;;;;;5511036;22;20352;-83
2021/01/12 18:15:27;;;;;;;;;;;3.10;99.90;;;;;;5062872;28;19917;-82
2021/01/12 18:17:54;;;;;;;;;;;3.20;99.90;;;;;;5273240;22;20447;-81
2021/01/12 18:20:20;;;;;;;;;;;3.20;99.90;;;;;;5149242;22;19932;-82
2021/01/12 18:22:50;;;;;;;;;;;3.20;99.90;;;;;;5013179;28;19964;-81
2021/01/12 18:25:17;;;;;;;;;;;3.20;99.90;;;;;;5307614;22;19964;-81
2021/01/12 18:27:45;;;;;;;;;;;3.20;99.90;;;;;;5025537;28;19936;-82
2021/01/12 18:30:12;;;;;;;;;;;3.10;99.90;;;;;;5021410;28;19995;-82
2021/01/12 18:32:38;;;;;;;;;;;3.20;99.90;;;;;;5032115;28;20291;-82
2021/01/12 18:35:05;;;;;;;;;;;3.20;99.90;;;;;;5261345;22;19923;-82
2021/01/12 18:37:37;;;;;;;;;;;3.20;99.90;;;;;;5042813;28;19928;-83
2021/01/12 18:40:10;;;;;;;;;;;3.20;99.90;;;;;;5029343;28;19912;-82
2021/01/12 18:42:36;;;;;;;;;;;3.20;99.90;;;;;;5031789;28;19916;-83
2021/01/12 18:45:06;;;;;;;;;;;3.20;99.90;;;;;;5034333;28;20038;-82
2021/01/12 18:47:33;;;;;;;;;;;3.20;99.90;;;;;;5040621;28;20313;-82
2021/01/12 18:49:59;;;;;;;;;;;3.20;99.90;;;;;;5059520;28;19909;-81
2021/01/12 18:52:24;;;;;;;;;;;3.20;99.90;;;;;;5038991;28;19919;-82
2021/01/12 18:54:53;;;;;;;;;;;3.30;99.90;;;;;;5035862;28;19929;-83
2021/01/12 18:57:19;;;;;;;;;;;3.20;99.90;;;;;;5034224;28;19915;-83
2021/01/12 18:59:47;;;;;;;;;;;3.20;99.90;;;;;;5148361;23;19974;-88
2021/01/12 19:02:23;;;;;;;;;;;3.20;99.90;;;;;;5051401;28;19917;-88
2021/01/12 19:20:53;;;;;;;;;;;3.10;99.90;;;;;;5656801;22;19929;-88
2021/01/12 19:28:35;;;;;;;;;;;3.20;99.90;;;;;;5051052;28;19947;-87
2021/01/12 19:31:01;;;;;;;;;;;3.20;99.90;;;;;;5034038;28;20379;-86
2021/01/12 19:33:32;;;;;;;;;;;3.10;99.90;;;;;;5034894;28;19923;-87
2021/01/12 19:35:58;;;;;;;;;;;3.20;99.90;;;;;;5442074;22;19955;-86
2021/01/12 19:38:25;;;;;;;;;;;3.10;99.90;;;;;;5343137;22;19924;-87
2021/01/12 19:43:30;;;;;;;;;;;3.10;99.90;;;;;;5504808;22;19934;-87
2021/01/12 19:48:34;;;;;;;;;;;3.00;99.90;;;;;;5856605;22;19954;-83
